sensor_id;sensor_type;location;lat;lon;timestamp;P1;durP1;ratioP1;P2;durP2;ratioP2
13605;SDS011;6874;52.084;5.090;2023-02-28T00:00:10;6.27;;;6.07;;
13605;SDS011;6874;52.084;5.090;2023-02-28T00:02:37;6.60;;;6.40;;
13605;SDS011;6874;52.084;5.090;2023-02-28T00:05:05;7.80;;;7.60;;
13605;SDS011;6874;52.084;5.090;2023-02-28T00:07:31;7.87;;;7.67;;
13605;SDS011;6874;52.084;5.090;2023-02-28T00:09:57;8.90;;;8.60;;
13605;SDS011;6874;52.084;5.090;2023-02-28T00:12:23;9.17;;;8.87;;
13605;SDS011;6874;52.084;5.090;2023-02-28T00:14:49;8.00;;;7.80;;
13605;SDS011;6874;52.084;5.090;2023-02-28T00:17:15;9.30;;;9.00;;
13605;SDS011;6874;52.084;5.090;2023-02-28T00:19:45;9.40;;;9.10;;
13605;SDS011;6874;52.084;5.090;2023-02-28T00:22:12;9.00;;;8.70;;
13605;SDS011;6874;52.084;5.090;2023-02-28T00:24:38;8.90;;;8.60;;
13605;SDS011;6874;52.084;5.090;2023-02-28T00:27:03;10.73;;;10.43;;
13605;SDS011;6874;52.084;5.090;2023-02-28T00:29:29;10.37;;;10.07;;
13605;SDS011;6874;52.084;5.090;2023-02-28T00:31:54;9.27;;;8.97;;
13605;SDS011;6874;52.084;5.090;2023-02-28T00:34:20;12.10;;;11.70;;
13605;SDS011;6874;52.084;5.090;2023-02-28T00:36:46;11.00;;;10.70;;
13605;SDS011;6874;52.084;5.090;2023-02-28T00:39:13;10.40;;;10.10;;
13605;SDS011;6874;52.084;5.090;2023-02-28T00:41:39;10.87;;;10.57;;
13605;SDS011;6874;52.084;5.090;2023-02-28T00:44:05;8.90;;;8.63;;
13605;SDS011;6874;52.084;5.090;2023-02-28T00:46:30;10.83;;;10.53;;
13605;SDS011;6874;52.084;5.090;2023-02-28T00:48:56;10.53;;;10.23;;
13605;SDS011;6874;52.084;5.090;2023-02-28T00:51:21;12.47;;;12.07;;
13605;SDS011;6874;52.084;5.090;2023-02-28T00:53:47;11.63;;;11.27;;
13605;SDS011;6874;52.084;5.090;2023-02-28T00:56:12;11.87;;;11.53;;
13605;SDS011;6874;52.084;5.090;2023-02-28T00:58:38;13.77;;;13.37;;
13605;SDS011;6874;52.084;5.090;2023-02-28T01:01:04;12.57;;;12.17;;
13605;SDS011;6874;52.084;5.090;2023-02-28T01:03:31;16.70;;;16.20;;
13605;SDS011;6874;52.084;5.090;2023-02-28T01:05:56;15.83;;;15.33;;
13605;SDS011;6874;52.084;5.090;2023-02-28T01:08:22;14.87;;;14.40;;
13605;SDS011;6874;52.084;5.090;2023-02-28T01:10:48;14.00;;;13.60;;
13605;SDS011;6874;52.084;5.090;2023-02-28T01:13:14;14.23;;;13.83;;
13605;SDS011;6874;52.084;5.090;2023-02-28T01:15:41;16.23;;;15.73;;
13605;SDS011;6874;52.084;5.090;2023-02-28T01:18:11;15.43;;;14.93;;
13605;SDS011;6874;52.084;5.090;2023-02-28T01:20:37;12.97;;;12.57;;
13605;SDS011;6874;52.084;5.090;2023-02-28T01:23:03;14.13;;;13.73;;
13605;SDS011;6874;52.084;5.090;2023-02-28T01:25:28;13.13;;;12.73;;
13605;SDS011;6874;52.084;5.090;2023-02-28T01:27:54;13.20;;;12.80;;
13605;SDS011;6874;52.084;5.090;2023-02-28T01:30:20;17.20;;;16.70;;
13605;SDS011;6874;52.084;5.090;2023-02-28T01:32:45;15.63;;;15.13;;
13605;SDS011;6874;52.084;5.090;2023-02-28T01:35:11;14.13;;;13.73;;
13605;SDS011;6874;52.084;5.090;2023-02-28T01:37:37;17.93;;;17.40;;
13605;SDS011;6874;52.084;5.090;2023-02-28T01:40:03;15.50;;;15.00;;
13605;SDS011;6874;52.084;5.090;2023-02-28T01:42:29;18.67;;;18.10;;
13605;SDS011;6874;52.084;5.090;2023-02-28T01:44:55;17.47;;;16.93;;
13605;SDS011;6874;52.084;5.090;2023-02-28T01:47:28;17.63;;;17.13;;
13605;SDS011;6874;52.084;5.090;2023-02-28T01:50:00;16.23;;;15.73;;
13605;SDS011;6874;52.084;5.090;2023-02-28T01:52:29;15.90;;;15.40;;
13605;SDS011;6874;52.084;5.090;2023-02-28T01:54:56;14.03;;;13.63;;
13605;SDS011;6874;52.084;5.090;2023-02-28T01:57:27;18.73;;;18.13;;
13605;SDS011;6874;52.084;5.090;2023-02-28T02:00:03;17.23;;;16.73;;
13605;SDS011;6874;52.084;5.090;2023-02-28T02:02:33;19.70;;;19.10;;
13605;SDS011;6874;52.084;5.090;2023-02-28T02:05:02;19.67;;;19.07;;
13605;SDS011;6874;52.084;5.090;2023-02-28T02:07:32;18.83;;;18.23;;
13605;SDS011;6874;52.084;5.090;2023-02-28T02:10:05;19.37;;;18.77;;
13605;SDS011;6874;52.084;5.090;2023-02-28T02:18:33;20.20;;;19.60;;
13605;SDS011;6874;52.084;5.090;2023-02-28T02:21:14;19.17;;;18.57;;
13605;SDS011;6874;52.084;5.090;2023-02-28T02:24:08;16.37;;;15.87;;
13605;SDS011;6874;52.084;5.090;2023-02-28T02:27:03;15.10;;;14.63;;
13605;SDS011;6874;52.084;5.090;2023-02-28T02:29:57;14.80;;;14.37;;
13605;SDS011;6874;52.084;5.090;2023-02-28T02:33:02;14.47;;;14.03;;
13605;SDS011;6874;52.084;5.090;2023-02-28T02:35:46;12.07;;;11.70;;
13605;SDS011;6874;52.084;5.090;2023-02-28T02:38:33;11.70;;;11.37;;
13605;SDS011;6874;52.084;5.090;2023-02-28T02:49:13;13.87;;;13.47;;
13605;SDS011;6874;52.084;5.090;2023-02-28T02:51:44;11.40;;;11.10;;
13605;SDS011;6874;52.084;5.090;2023-02-28T02:54:13;13.43;;;13.03;;
13605;SDS011;6874;52.084;5.090;2023-02-28T02:56:43;12.70;;;12.30;;
13605;SDS011;6874;52.084;5.090;2023-02-28T02:59:12;14.40;;;13.97;;
13605;SDS011;6874;52.084;5.090;2023-02-28T03:01:40;14.07;;;13.67;;
13605;SDS011;6874;52.084;5.090;2023-02-28T03:04:09;11.33;;;11.00;;
13605;SDS011;6874;52.084;5.090;2023-02-28T03:06:38;14.93;;;14.47;;
13605;SDS011;6874;52.084;5.090;2023-02-28T03:09:04;14.03;;;13.63;;
13605;SDS011;6874;52.084;5.090;2023-02-28T03:11:29;14.37;;;13.97;;
13605;SDS011;6874;52.084;5.090;2023-02-28T03:16:59;12.60;;;12.20;;
13605;SDS011;6874;52.084;5.090;2023-02-28T03:27:41;11.53;;;11.23;;
13605;SDS011;6874;52.084;5.090;2023-02-28T03:35:24;12.43;;;12.03;;
13605;SDS011;6874;52.084;5.090;2023-02-28T03:38:01;11.33;;;11.03;;
13605;SDS011;6874;52.084;5.090;2023-02-28T03:40:33;10.77;;;10.47;;
13605;SDS011;6874;52.084;5.090;2023-02-28T03:43:12;10.77;;;10.47;;
13605;SDS011;6874;52.084;5.090;2023-02-28T03:45:42;9.47;;;9.17;;
13605;SDS011;6874;52.084;5.090;2023-02-28T03:48:12;12.17;;;11.80;;
13605;SDS011;6874;52.084;5.090;2023-02-28T03:50:48;11.90;;;11.57;;
13605;SDS011;6874;52.084;5.090;2023-02-28T03:53:19;11.30;;;11.00;;
13605;SDS011;6874;52.084;5.090;2023-02-28T03:55:47;11.23;;;10.93;;
13605;SDS011;6874;52.084;5.090;2023-02-28T04:01:09;10.10;;;9.80;;
13605;SDS011;6874;52.084;5.090;2023-02-28T04:03:43;11.10;;;10.80;;
13605;SDS011;6874;52.084;5.090;2023-02-28T04:06:13;10.87;;;10.57;;
13605;SDS011;6874;52.084;5.090;2023-02-28T04:08:41;11.87;;;11.53;;
13605;SDS011;6874;52.084;5.090;2023-02-28T04:11:11;11.70;;;11.37;;
13605;SDS011;6874;52.084;5.090;2023-02-28T04:13:48;11.47;;;11.17;;
13605;SDS011;6874;52.084;5.090;2023-02-28T04:16:14;11.37;;;11.07;;
13605;SDS011;6874;52.084;5.090;2023-02-28T04:18:43;12.00;;;11.63;;
13605;SDS011;6874;52.084;5.090;2023-02-28T04:21:09;12.30;;;11.90;;
13605;SDS011;6874;52.084;5.090;2023-02-28T04:23:35;10.33;;;10.03;;
13605;SDS011;6874;52.084;5.090;2023-02-28T04:26:01;11.33;;;11.03;;
13605;SDS011;6874;52.084;5.090;2023-02-28T04:28:27;11.23;;;10.93;;
13605;SDS011;6874;52.084;5.090;2023-02-28T04:30:56;9.97;;;9.67;;
13605;SDS011;6874;52.084;5.090;2023-02-28T04:33:23;12.13;;;11.73;;
13605;SDS011;6874;52.084;5.090;2023-02-28T04:35:57;12.40;;;12.00;;
13605;SDS011;6874;52.084;5.090;2023-02-28T04:38:27;11.60;;;11.30;;
13605;SDS011;6874;52.084;5.090;2023-02-28T04:40:53;11.97;;;11.60;;
13605;SDS011;6874;52.084;5.090;2023-02-28T04:43:21;11.03;;;10.73;;
13605;SDS011;6874;52.084;5.090;2023-02-28T04:45:46;13.07;;;12.67;;
13605;SDS011;6874;52.084;5.090;2023-02-28T04:48:12;11.13;;;10.83;;
13605;SDS011;6874;52.084;5.090;2023-02-28T04:50:38;12.90;;;12.50;;
13605;SDS011;6874;52.084;5.090;2023-02-28T04:53:03;11.23;;;10.93;;
13605;SDS011;6874;52.084;5.090;2023-02-28T04:55:29;11.97;;;11.57;;
13605;SDS011;6874;52.084;5.090;2023-02-28T04:57:54;10.03;;;9.73;;
13605;SDS011;6874;52.084;5.090;2023-02-28T05:00:20;10.60;;;10.30;;
13605;SDS011;6874;52.084;5.090;2023-02-28T05:02:45;11.23;;;10.93;;
13605;SDS011;6874;52.084;5.090;2023-02-28T05:05:11;10.03;;;9.73;;
13605;SDS011;6874;52.084;5.090;2023-02-28T05:07:42;9.10;;;8.83;;
13605;SDS011;6874;52.084;5.090;2023-02-28T05:10:09;10.97;;;10.67;;
13605;SDS011;6874;52.084;5.090;2023-02-28T05:12:35;11.33;;;11.00;;
13605;SDS011;6874;52.084;5.090;2023-02-28T05:15:00;10.67;;;10.37;;
13605;SDS011;6874;52.084;5.090;2023-02-28T05:17:27;10.90;;;10.60;;
13605;SDS011;6874;52.084;5.090;2023-02-28T05:19:53;10.63;;;10.33;;
13605;SDS011;6874;52.084;5.090;2023-02-28T05:22:18;10.97;;;10.67;;
13605;SDS011;6874;52.084;5.090;2023-02-28T05:24:44;8.87;;;8.60;;
13605;SDS011;6874;52.084;5.090;2023-02-28T05:27:09;12.50;;;12.13;;
13605;SDS011;6874;52.084;5.090;2023-02-28T05:29:35;10.97;;;10.67;;
13605;SDS011;6874;52.084;5.090;2023-02-28T05:32:07;11.43;;;11.10;;
13605;SDS011;6874;52.084;5.090;2023-02-28T05:34:34;10.97;;;10.67;;
13605;SDS011;6874;52.084;5.090;2023-02-28T05:37:01;12.17;;;11.80;;
13605;SDS011;6874;52.084;5.090;2023-02-28T05:39:27;11.83;;;11.50;;
13605;SDS011;6874;52.084;5.090;2023-02-28T05:41:52;12.80;;;12.40;;
13605;SDS011;6874;52.084;5.090;2023-02-28T05:44:18;12.10;;;11.73;;
13605;SDS011;6874;52.084;5.090;2023-02-28T05:46:44;12.40;;;12.00;;
13605;SDS011;6874;52.084;5.090;2023-02-28T05:49:09;14.07;;;13.67;;
13605;SDS011;6874;52.084;5.090;2023-02-28T05:51:35;12.83;;;12.43;;
13605;SDS011;6874;52.084;5.090;2023-02-28T05:54:01;15.27;;;14.80;;
13605;SDS011;6874;52.084;5.090;2023-02-28T05:56:27;13.43;;;13.03;;
13605;SDS011;6874;52.084;5.090;2023-02-28T06:01:51;13.00;;;12.60;;
13605;SDS011;6874;52.084;5.090;2023-02-28T06:04:18;14.10;;;13.70;;
13605;SDS011;6874;52.084;5.090;2023-02-28T06:12:38;12.70;;;12.30;;
13605;SDS011;6874;52.084;5.090;2023-02-28T06:15:06;13.73;;;13.33;;
13605;SDS011;6874;52.084;5.090;2023-02-28T06:17:32;13.27;;;12.87;;
13605;SDS011;6874;52.084;5.090;2023-02-28T06:19:58;13.13;;;12.73;;
13605;SDS011;6874;52.084;5.090;2023-02-28T06:22:23;15.60;;;15.10;;
13605;SDS011;6874;52.084;5.090;2023-02-28T06:24:49;13.27;;;12.87;;
13605;SDS011;6874;52.084;5.090;2023-02-28T06:27:15;14.33;;;13.93;;
13605;SDS011;6874;52.084;5.090;2023-02-28T06:29:40;12.60;;;12.23;;
13605;SDS011;6874;52.084;5.090;2023-02-28T06:32:06;15.10;;;14.63;;
13605;SDS011;6874;52.084;5.090;2023-02-28T06:34:31;14.90;;;14.43;;
13605;SDS011;6874;52.084;5.090;2023-02-28T06:36:58;12.93;;;12.53;;
13605;SDS011;6874;52.084;5.090;2023-02-28T06:39:27;12.07;;;11.70;;
13605;SDS011;6874;52.084;5.090;2023-02-28T06:41:56;13.07;;;12.67;;
13605;SDS011;6874;52.084;5.090;2023-02-28T06:44:22;15.00;;;14.53;;
13605;SDS011;6874;52.084;5.090;2023-02-28T06:46:48;12.27;;;11.90;;
13605;SDS011;6874;52.084;5.090;2023-02-28T06:49:14;15.53;;;15.03;;
13605;SDS011;6874;52.084;5.090;2023-02-28T06:51:41;13.80;;;13.40;;
13605;SDS011;6874;52.084;5.090;2023-02-28T06:54:09;13.33;;;12.93;;
13605;SDS011;6874;52.084;5.090;2023-02-28T06:56:35;14.27;;;13.87;;
13605;SDS011;6874;52.084;5.090;2023-02-28T06:59:01;14.53;;;14.13;;
13605;SDS011;6874;52.084;5.090;2023-02-28T07:01:27;14.43;;;14.03;;
13605;SDS011;6874;52.084;5.090;2023-02-28T07:03:53;12.73;;;12.33;;
13605;SDS011;6874;52.084;5.090;2023-02-28T07:06:19;13.70;;;13.30;;
13605;SDS011;6874;52.084;5.090;2023-02-28T07:08:47;15.97;;;15.47;;
13605;SDS011;6874;52.084;5.090;2023-02-28T07:11:13;12.73;;;12.33;;
13605;SDS011;6874;52.084;5.090;2023-02-28T07:13:39;13.27;;;12.87;;
13605;SDS011;6874;52.084;5.090;2023-02-28T07:16:05;11.80;;;11.47;;
13605;SDS011;6874;52.084;5.090;2023-02-28T07:18:34;11.67;;;11.33;;
13605;SDS011;6874;52.084;5.090;2023-02-28T07:21:04;13.37;;;12.97;;
13605;SDS011;6874;52.084;5.090;2023-02-28T07:23:32;13.93;;;13.53;;
13605;SDS011;6874;52.084;5.090;2023-02-28T07:25:58;13.27;;;12.87;;
13605;SDS011;6874;52.084;5.090;2023-02-28T07:28:24;10.80;;;10.50;;
13605;SDS011;6874;52.084;5.090;2023-02-28T07:30:50;12.13;;;11.77;;
13605;SDS011;6874;52.084;5.090;2023-02-28T07:33:15;10.67;;;10.37;;
13605;SDS011;6874;52.084;5.090;2023-02-28T07:35:41;10.47;;;10.17;;
13605;SDS011;6874;52.084;5.090;2023-02-28T07:38:07;10.27;;;9.97;;
13605;SDS011;6874;52.084;5.090;2023-02-28T07:40:33;10.27;;;9.97;;
13605;SDS011;6874;52.084;5.090;2023-02-28T07:43:00;10.67;;;10.37;;
13605;SDS011;6874;52.084;5.090;2023-02-28T07:45:26;9.13;;;8.83;;
13605;SDS011;6874;52.084;5.090;2023-02-28T07:47:57;9.40;;;9.10;;
13605;SDS011;6874;52.084;5.090;2023-02-28T07:50:23;9.73;;;9.43;;
13605;SDS011;6874;52.084;5.090;2023-02-28T07:52:48;10.53;;;10.23;;
13605;SDS011;6874;52.084;5.090;2023-02-28T07:55:14;11.43;;;11.13;;
13605;SDS011;6874;52.084;5.090;2023-02-28T07:57:41;10.00;;;9.70;;
13605;SDS011;6874;52.084;5.090;2023-02-28T08:00:09;9.37;;;9.07;;
13605;SDS011;6874;52.084;5.090;2023-02-28T08:02:35;9.77;;;9.47;;
13605;SDS011;6874;52.084;5.090;2023-02-28T08:05:01;10.77;;;10.47;;
13605;SDS011;6874;52.084;5.090;2023-02-28T08:07:27;9.77;;;9.47;;
13605;SDS011;6874;52.084;5.090;2023-02-28T08:09:53;10.80;;;10.50;;
13605;SDS011;6874;52.084;5.090;2023-02-28T08:12:19;10.70;;;10.40;;
13605;SDS011;6874;52.084;5.090;2023-02-28T08:14:44;9.53;;;9.23;;
13605;SDS011;6874;52.084;5.090;2023-02-28T08:17:10;10.20;;;9.90;;
13605;SDS011;6874;52.084;5.090;2023-02-28T08:19:36;8.97;;;8.67;;
13605;SDS011;6874;52.084;5.090;2023-02-28T08:22:01;9.90;;;9.60;;
13605;SDS011;6874;52.084;5.090;2023-02-28T08:24:27;9.03;;;8.73;;
13605;SDS011;6874;52.084;5.090;2023-02-28T08:26:53;9.57;;;9.27;;
13605;SDS011;6874;52.084;5.090;2023-02-28T08:29:18;8.23;;;8.03;;
13605;SDS011;6874;52.084;5.090;2023-02-28T08:31:44;8.87;;;8.63;;
13605;SDS011;6874;52.084;5.090;2023-02-28T08:34:10;7.07;;;6.87;;
13605;SDS011;6874;52.084;5.090;2023-02-28T08:36:38;7.90;;;7.70;;
13605;SDS011;6874;52.084;5.090;2023-02-28T08:39:04;8.07;;;7.87;;
13605;SDS011;6874;52.084;5.090;2023-02-28T08:41:31;7.97;;;7.77;;
13605;SDS011;6874;52.084;5.090;2023-02-28T08:43:57;7.57;;;7.37;;
13605;SDS011;6874;52.084;5.090;2023-02-28T08:46:23;8.60;;;8.37;;
13605;SDS011;6874;52.084;5.090;2023-02-28T08:48:56;8.20;;;8.00;;
13605;SDS011;6874;52.084;5.090;2023-02-28T08:51:27;8.33;;;8.13;;
13605;SDS011;6874;52.084;5.090;2023-02-28T08:53:53;9.10;;;8.80;;
13605;SDS011;6874;52.084;5.090;2023-02-28T08:56:24;8.07;;;7.87;;
13605;SDS011;6874;52.084;5.090;2023-02-28T08:58:51;8.60;;;8.40;;
13605;SDS011;6874;52.084;5.090;2023-02-28T09:01:18;8.20;;;8.00;;
13605;SDS011;6874;52.084;5.090;2023-02-28T09:03:46;7.80;;;7.60;;
13605;SDS011;6874;52.084;5.090;2023-02-28T09:06:13;7.73;;;7.53;;
13605;SDS011;6874;52.084;5.090;2023-02-28T09:08:40;8.30;;;8.07;;
13605;SDS011;6874;52.084;5.090;2023-02-28T09:11:06;8.43;;;8.20;;
13605;SDS011;6874;52.084;5.090;2023-02-28T09:13:32;8.70;;;8.47;;
13605;SDS011;6874;52.084;5.090;2023-02-28T09:15:59;8.73;;;8.50;;
13605;SDS011;6874;52.084;5.090;2023-02-28T09:18:26;7.97;;;7.77;;
13605;SDS011;6874;52.084;5.090;2023-02-28T09:20:51;8.40;;;8.20;;
13605;SDS011;6874;52.084;5.090;2023-02-28T09:23:18;8.20;;;8.00;;
13605;SDS011;6874;52.084;5.090;2023-02-28T09:25:50;8.07;;;7.87;;
13605;SDS011;6874;52.084;5.090;2023-02-28T09:28:18;7.57;;;7.37;;
13605;SDS011;6874;52.084;5.090;2023-02-28T09:30:45;8.30;;;8.10;;
13605;SDS011;6874;52.084;5.090;2023-02-28T09:33:12;7.37;;;7.17;;
13605;SDS011;6874;52.084;5.090;2023-02-28T09:35:38;7.47;;;7.27;;
13605;SDS011;6874;52.084;5.090;2023-02-28T09:38:04;8.63;;;8.37;;
13605;SDS011;6874;52.084;5.090;2023-02-28T09:40:32;9.03;;;8.77;;
13605;SDS011;6874;52.084;5.090;2023-02-28T09:43:02;7.80;;;7.60;;
13605;SDS011;6874;52.084;5.090;2023-02-28T09:47:59;9.40;;;9.10;;
13605;SDS011;6874;52.084;5.090;2023-02-28T09:50:31;7.77;;;7.57;;
13605;SDS011;6874;52.084;5.090;2023-02-28T09:53:06;8.13;;;7.93;;
13605;SDS011;6874;52.084;5.090;2023-02-28T09:56:07;6.60;;;6.40;;
13605;SDS011;6874;52.084;5.090;2023-02-28T09:58:42;6.73;;;6.53;;
13605;SDS011;6874;52.084;5.090;2023-02-28T10:01:39;7.03;;;6.83;;
13605;SDS011;6874;52.084;5.090;2023-02-28T10:04:22;7.63;;;7.43;;
13605;SDS011;6874;52.084;5.090;2023-02-28T10:06:57;6.33;;;6.13;;
13605;SDS011;6874;52.084;5.090;2023-02-28T10:09:24;7.17;;;6.97;;
13605;SDS011;6874;52.084;5.090;2023-02-28T10:11:53;6.90;;;6.70;;
13605;SDS011;6874;52.084;5.090;2023-02-28T10:14:23;6.57;;;6.37;;
13605;SDS011;6874;52.084;5.090;2023-02-28T10:22:08;6.40;;;6.20;;
13605;SDS011;6874;52.084;5.090;2023-02-28T10:24:39;7.23;;;7.03;;
13605;SDS011;6874;52.084;5.090;2023-02-28T10:27:20;6.33;;;6.13;;
13605;SDS011;6874;52.084;5.090;2023-02-28T10:29:49;6.63;;;6.43;;
13605;SDS011;6874;52.084;5.090;2023-02-28T10:32:20;5.87;;;5.70;;
13605;SDS011;6874;52.084;5.090;2023-02-28T10:35:14;5.20;;;5.10;;
13605;SDS011;6874;52.084;5.090;2023-02-28T10:37:38;6.20;;;6.00;;
13605;SDS011;6874;52.084;5.090;2023-02-28T10:42:45;6.37;;;6.17;;
13605;SDS011;6874;52.084;5.090;2023-02-28T10:45:23;5.20;;;5.10;;
13605;SDS011;6874;52.084;5.090;2023-02-28T10:53:48;6.03;;;5.83;;
13605;SDS011;6874;52.084;5.090;2023-02-28T10:56:23;5.10;;;5.00;;
13605;SDS011;6874;52.084;5.090;2023-02-28T10:58:47;5.27;;;5.17;;
13605;SDS011;6874;52.084;5.090;2023-02-28T11:01:15;5.83;;;5.67;;
13605;SDS011;6874;52.084;5.090;2023-02-28T11:03:59;5.90;;;5.70;;
13605;SDS011;6874;52.084;5.090;2023-02-28T11:06:26;5.50;;;5.40;;
13605;SDS011;6874;52.084;5.090;2023-02-28T11:08:56;5.83;;;5.67;;
13605;SDS011;6874;52.084;5.090;2023-02-28T11:11:28;5.50;;;5.40;;
13605;SDS011;6874;52.084;5.090;2023-02-28T11:13:57;5.50;;;5.40;;
13605;SDS011;6874;52.084;5.090;2023-02-28T11:16:33;6.00;;;5.80;;
13605;SDS011;6874;52.084;5.090;2023-02-28T11:19:02;6.43;;;6.23;;
13605;SDS011;6874;52.084;5.090;2023-02-28T11:21:35;6.53;;;6.33;;
13605;SDS011;6874;52.084;5.090;2023-02-28T11:27:00;4.93;;;4.83;;
13605;SDS011;6874;52.084;5.090;2023-02-28T11:29:27;5.63;;;5.50;;
13605;SDS011;6874;52.084;5.090;2023-02-28T11:32:02;5.67;;;5.53;;
13605;SDS011;6874;52.084;5.090;2023-02-28T11:34:41;6.00;;;5.80;;
13605;SDS011;6874;52.084;5.090;2023-02-28T11:37:17;6.10;;;5.90;;
13605;SDS011;6874;52.084;5.090;2023-02-28T11:39:44;5.63;;;5.50;;
13605;SDS011;6874;52.084;5.090;2023-02-28T11:48:04;6.00;;;5.80;;
13605;SDS011;6874;52.084;5.090;2023-02-28T11:56:06;25.37;;;24.57;;
13605;SDS011;6874;52.084;5.090;2023-02-28T11:58:49;30.00;;;29.03;;
13605;SDS011;6874;52.084;5.090;2023-02-28T12:01:41;22.37;;;21.67;;
13605;SDS011;6874;52.084;5.090;2023-02-28T12:06:52;32.73;;;31.67;;
13605;SDS011;6874;52.084;5.090;2023-02-28T12:09:47;42.77;;;41.37;;
13605;SDS011;6874;52.084;5.090;2023-02-28T12:12:39;50.97;;;49.23;;
13605;SDS011;6874;52.084;5.090;2023-02-28T12:19:04;36.27;;;35.00;;
13605;SDS011;6874;52.084;5.090;2023-02-28T12:26:38;49.70;;;48.00;;
13605;SDS011;6874;52.084;5.090;2023-02-28T12:29:14;54.00;;;52.20;;
13605;SDS011;6874;52.084;5.090;2023-02-28T12:32:05;50.37;;;48.67;;
13605;SDS011;6874;52.084;5.090;2023-02-28T12:34:38;42.27;;;40.90;;
13605;SDS011;6874;52.084;5.090;2023-02-28T12:37:14;39.10;;;37.80;;
13605;SDS011;6874;52.084;5.090;2023-02-28T12:39:45;38.83;;;37.57;;
13605;SDS011;6874;52.084;5.090;2023-02-28T12:42:17;41.07;;;39.70;;
13605;SDS011;6874;52.084;5.090;2023-02-28T12:44:54;45.37;;;43.87;;
13605;SDS011;6874;52.084;5.090;2023-02-28T12:47:24;58.87;;;56.90;;
13605;SDS011;6874;52.084;5.090;2023-02-28T12:49:57;61.77;;;59.73;;
13605;SDS011;6874;52.084;5.090;2023-02-28T12:53:18;58.13;;;56.20;;
13605;SDS011;6874;52.084;5.090;2023-02-28T12:55:36;52.40;;;50.70;;
13605;SDS011;6874;52.084;5.090;2023-02-28T13:09:39;61.30;;;59.30;;
13605;SDS011;6874;52.084;5.090;2023-02-28T13:12:12;66.73;;;64.53;;
13605;SDS011;6874;52.084;5.090;2023-02-28T13:14:39;64.27;;;62.17;;
13605;SDS011;6874;52.084;5.090;2023-02-28T13:19:34;65.93;;;63.77;;
13605;SDS011;6874;52.084;5.090;2023-02-28T13:22:02;60.43;;;58.43;;
13605;SDS011;6874;52.084;5.090;2023-02-28T13:29:40;44.77;;;43.30;;
13605;SDS011;6874;52.084;5.090;2023-02-28T13:35:12;35.07;;;33.90;;
13605;SDS011;6874;52.084;5.090;2023-02-28T13:37:33;34.27;;;33.17;;
13605;SDS011;6874;52.084;5.090;2023-02-28T13:47:36;23.13;;;22.40;;
13605;SDS011;6874;52.084;5.090;2023-02-28T13:50:15;18.60;;;18.03;;
13605;SDS011;6874;52.084;5.090;2023-02-28T13:52:56;17.63;;;17.07;;
13605;SDS011;6874;52.084;5.090;2023-02-28T13:58:09;23.70;;;22.93;;
13605;SDS011;6874;52.084;5.090;2023-02-28T14:00:49;24.13;;;23.37;;
13605;SDS011;6874;52.084;5.090;2023-02-28T14:06:18;21.07;;;20.37;;
13605;SDS011;6874;52.084;5.090;2023-02-28T14:09:06;16.87;;;16.37;;
13605;SDS011;6874;52.084;5.090;2023-02-28T14:11:56;16.30;;;15.80;;
13605;SDS011;6874;52.084;5.090;2023-02-28T14:17:04;17.80;;;17.23;;
13605;SDS011;6874;52.084;5.090;2023-02-28T14:19:38;18.00;;;17.43;;
13605;SDS011;6874;52.084;5.090;2023-02-28T14:25:16;14.37;;;13.93;;
13605;SDS011;6874;52.084;5.090;2023-02-28T14:33:35;17.17;;;16.63;;
13605;SDS011;6874;52.084;5.090;2023-02-28T14:36:11;20.57;;;19.90;;
13605;SDS011;6874;52.084;5.090;2023-02-28T14:38:56;21.13;;;20.47;;
13605;SDS011;6874;52.084;5.090;2023-02-28T14:41:31;18.90;;;18.30;;
13605;SDS011;6874;52.084;5.090;2023-02-28T14:46:39;17.23;;;16.70;;
13605;SDS011;6874;52.084;5.090;2023-02-28T14:49:07;18.90;;;18.30;;
13605;SDS011;6874;52.084;5.090;2023-02-28T14:52:12;17.67;;;17.10;;
13605;SDS011;6874;52.084;5.090;2023-02-28T14:54:53;16.90;;;16.40;;
13605;SDS011;6874;52.084;5.090;2023-02-28T14:57:30;16.10;;;15.60;;
13605;SDS011;6874;52.084;5.090;2023-02-28T15:00:03;17.80;;;17.23;;
13605;SDS011;6874;52.084;5.090;2023-02-28T15:02:47;15.77;;;15.27;;
13605;SDS011;6874;52.084;5.090;2023-02-28T15:07:41;28.13;;;27.23;;
13605;SDS011;6874;52.084;5.090;2023-02-28T15:12:52;25.87;;;25.03;;
13605;SDS011;6874;52.084;5.090;2023-02-28T15:18:07;29.23;;;28.27;;
13605;SDS011;6874;52.084;5.090;2023-02-28T15:20:39;30.80;;;29.77;;
13605;SDS011;6874;52.084;5.090;2023-02-28T15:23:08;26.10;;;25.23;;
13605;SDS011;6874;52.084;5.090;2023-02-28T15:25:35;25.77;;;24.97;;
13605;SDS011;6874;52.084;5.090;2023-02-28T15:28:00;32.87;;;31.77;;
13605;SDS011;6874;52.084;5.090;2023-02-28T15:30:29;31.33;;;30.33;;
13605;SDS011;6874;52.084;5.090;2023-02-28T15:33:30;23.40;;;22.70;;
13605;SDS011;6874;52.084;5.090;2023-02-28T15:36:03;13.00;;;12.60;;
13605;SDS011;6874;52.084;5.090;2023-02-28T15:38:38;12.63;;;12.23;;
13605;SDS011;6874;52.084;5.090;2023-02-28T15:41:03;12.07;;;11.70;;
13605;SDS011;6874;52.084;5.090;2023-02-28T15:43:34;13.23;;;12.83;;
13605;SDS011;6874;52.084;5.090;2023-02-28T15:46:08;12.90;;;12.50;;
13605;SDS011;6874;52.084;5.090;2023-02-28T15:48:51;13.07;;;12.67;;
13605;SDS011;6874;52.084;5.090;2023-02-28T15:51:18;13.60;;;13.17;;
13605;SDS011;6874;52.084;5.090;2023-02-28T15:54:02;14.13;;;13.70;;
13605;SDS011;6874;52.084;5.090;2023-02-28T15:56:32;14.17;;;13.73;;
13605;SDS011;6874;52.084;5.090;2023-02-28T15:59:04;16.60;;;16.10;;
13605;SDS011;6874;52.084;5.090;2023-02-28T16:01:32;17.97;;;17.40;;
13605;SDS011;6874;52.084;5.090;2023-02-28T16:04:04;19.33;;;18.73;;
13605;SDS011;6874;52.084;5.090;2023-02-28T16:09:16;19.67;;;19.07;;
13605;SDS011;6874;52.084;5.090;2023-02-28T16:11:43;21.33;;;20.67;;
13605;SDS011;6874;52.084;5.090;2023-02-28T16:14:20;24.43;;;23.67;;
13605;SDS011;6874;52.084;5.090;2023-02-28T16:16:52;27.13;;;26.30;;
13605;SDS011;6874;52.084;5.090;2023-02-28T16:19:20;37.13;;;35.93;;
13605;SDS011;6874;52.084;5.090;2023-02-28T16:21:46;50.83;;;49.20;;
13605;SDS011;6874;52.084;5.090;2023-02-28T16:24:12;86.40;;;83.57;;
13605;SDS011;6874;52.084;5.090;2023-02-28T16:26:39;87.67;;;84.77;;
13605;SDS011;6874;52.084;5.090;2023-02-28T16:29:06;87.27;;;84.37;;
13605;SDS011;6874;52.084;5.090;2023-02-28T16:31:34;85.83;;;82.90;;
13605;SDS011;6874;52.084;5.090;2023-02-28T16:34:02;99.13;;;95.73;;
13605;SDS011;6874;52.084;5.090;2023-02-28T16:36:29;108.60;;;104.87;;
13605;SDS011;6874;52.084;5.090;2023-02-28T16:38:55;93.90;;;90.63;;
13605;SDS011;6874;52.084;5.090;2023-02-28T16:41:22;94.37;;;91.17;;
13605;SDS011;6874;52.084;5.090;2023-02-28T16:43:53;85.47;;;82.57;;
13605;SDS011;6874;52.084;5.090;2023-02-28T16:46:27;80.73;;;78.03;;
13605;SDS011;6874;52.084;5.090;2023-02-28T16:48:56;66.17;;;63.97;;
13605;SDS011;6874;52.084;5.090;2023-02-28T16:51:21;56.33;;;54.43;;
13605;SDS011;6874;52.084;5.090;2023-02-28T16:53:47;45.53;;;44.03;;
13605;SDS011;6874;52.084;5.090;2023-02-28T16:56:14;32.07;;;31.07;;
13605;SDS011;6874;52.084;5.090;2023-02-28T16:58:45;28.80;;;27.90;;
13605;SDS011;6874;52.084;5.090;2023-02-28T17:01:12;27.20;;;26.30;;
13605;SDS011;6874;52.084;5.090;2023-02-28T17:03:38;26.23;;;25.40;;
13605;SDS011;6874;52.084;5.090;2023-02-28T17:06:05;50.00;;;48.23;;
13605;SDS011;6874;52.084;5.090;2023-02-28T17:08:37;84.90;;;82.10;;
13605;SDS011;6874;52.084;5.090;2023-02-28T17:11:03;86.47;;;83.60;;
13605;SDS011;6874;52.084;5.090;2023-02-28T17:13:29;95.03;;;91.83;;
13605;SDS011;6874;52.084;5.090;2023-02-28T17:15:54;65.20;;;63.00;;
13605;SDS011;6874;52.084;5.090;2023-02-28T17:18:20;48.83;;;47.23;;
13605;SDS011;6874;52.084;5.090;2023-02-28T17:20:46;39.30;;;38.00;;